Time;durP1;ratioP1;P1;durP2;ratioP2;P2;SDS_P1;SDS_P2;PMS_P1;PMS_P2;Temp;Humidity;BMP_temperature;BMP_pressure;BME280_temperature;BME280_humidity;BME280_pressure;Samples;Min_cycle;Max_cycle;Signal;HPM_P1;HPM_P2
2022/12/05 00:00:14;;;;;;;4.83;4.33;;;;;;;10.62;70.64;95530.03;5007977;28;20274;-48
2022/12/05 00:02:42;;;;;;;5.47;4.20;;;;;;;10.62;70.65;95526.63;4991586;28;20186;-48
2022/12/05 00:05:11;;;;;;;5.73;4.57;;;;;;;10.62;70.58;95535.13;4988969;28;20220;-48
2022/12/05 00:07:38;;;;;;;5.40;3.87;;;;;;;10.61;70.72;95530.94;4988852;28;20205;-49
2022/12/05 00:10:07;;;;;;;5.23;4.30;;;;;;;10.39;70.55;95495.94;5005370;28;20188;-49
2022/12/05 00:12:34;;;;;;;6.73;4.70;;;;;;;10.62;70.43;95537.69;5008393;28;20206;-49
2022/12/05 00:15:01;;;;;;;5.87;4.60;;;;;;;10.62;70.53;95526.63;5008291;28;20188;-49
2022/12/05 00:17:28;;;;;;;5.70;4.77;;;;;;;10.62;70.77;95526.63;5008409;28;20599;-49
2022/12/05 00:19:56;;;;;;;6.23;4.40;;;;;;;10.62;70.64;95531.75;5008198;28;20208;-51
2022/12/05 00:22:22;;;;;;;6.00;4.70;;;;;;;10.55;70.64;95524.56;5007949;28;20558;-49
2022/12/05 00:24:49;;;;;;;5.60;4.63;;;;;;;10.62;70.61;95536.84;5007992;28;20695;-50
2022/12/05 00:27:16;;;;;;;5.17;4.27;;;;;;;10.62;70.57;95539.41;5008291;28;20691;-49
2022/12/05 00:29:43;;;;;;;4.87;4.37;;;;;;;10.61;70.51;95548.03;4993018;28;20197;-48
2022/12/05 00:32:10;;;;;;;5.47;4.97;;;;;;;10.61;70.44;95551.38;4988697;28;20676;-48
2022/12/05 00:34:36;;;;;;;4.70;3.83;;;;;;;10.61;70.60;95551.38;4987914;28;20193;-48
2022/12/05 00:37:04;;;;;;;5.07;4.30;;;;;;;10.48;70.58;95531.03;4988191;28;20194;-49
2022/12/05 00:39:31;;;;;;;7.27;5.00;;;;;;;10.61;70.57;95548.84;5004269;28;20196;-49
2022/12/05 00:41:58;;;;;;;5.57;4.77;;;;;;;10.62;70.59;95547.09;5008617;28;20187;-48
2022/12/05 00:44:25;;;;;;;6.07;4.30;;;;;;;10.63;70.67;95551.28;5009502;28;20216;-48
2022/12/05 00:46:52;;;;;;;5.90;4.53;;;;;;;10.62;70.55;95547.94;5011561;28;20207;-48
2022/12/05 00:49:18;;;;;;;6.03;4.60;;;;;;;10.62;70.55;95553.03;5011199;28;20199;-48
2022/12/05 00:51:45;;;;;;;5.70;4.27;;;;;;;10.62;70.65;95552.19;5011092;28;20195;-47
2022/12/05 00:54:16;;;;;;;6.17;4.83;;;;;;;10.62;70.69;95547.09;5011167;28;20226;-49
2022/12/05 00:56:43;;;;;;;6.27;4.40;;;;;;;10.63;70.68;95538.50;5011383;28;20316;-48
2022/12/05 00:59:16;;;;;;;6.43;4.83;;;;;;;10.62;70.59;95532.59;5010957;28;20197;-48
2022/12/05 01:01:45;;;;;;;6.63;4.60;;;;;;;10.60;70.59;95531.88;5011003;28;20238;-48
2022/12/05 01:04:14;;;;;;;5.40;4.87;;;;;;;10.34;70.63;95487.00;5011118;28;20232;-48
2022/12/05 01:06:42;;;;;;;6.40;5.13;;;;;;;10.62;70.59;95530.03;5010657;28;20689;-48
2022/12/05 01:09:12;;;;;;;5.53;4.67;;;;;;;10.61;70.75;95528.38;5011016;28;20675;-48
2022/12/05 01:11:40;;;;;;;5.90;4.70;;;;;;;10.61;70.79;95523.25;5010978;28;20272;-48
2022/12/05 01:14:07;;;;;;;6.40;4.70;;;;;;;10.60;70.89;95519.06;5010400;28;20192;-55
2022/12/05 01:16:36;;;;;;;5.50;4.47;;;;;;;10.50;70.89;95506.19;5010620;28;20250;-48
2022/12/05 01:19:05;;;;;;;5.60;4.90;;;;;;;10.60;70.89;95519.06;5011093;28;20192;-47
2022/12/05 01:21:31;;;;;;;6.93;4.70;;;;;;;10.40;70.97;95486.53;5010456;28;20199;-48
2022/12/05 01:23:58;;;;;;;5.67;4.77;;;;;;;10.60;70.67;95529.31;5010657;28;20207;-47
2022/12/05 01:26:25;;;;;;;5.20;4.70;;;;;;;10.61;70.73;95514.78;5006556;28;20181;-47
2022/12/05 01:28:54;;;;;;;6.13;5.13;;;;;;;10.61;70.77;95515.59;4998415;28;20215;-47
2022/12/05 01:31:25;;;;;;;7.03;4.80;;;;;;;10.55;70.83;95498.97;5001377;28;20189;-47
2022/12/05 01:33:52;;;;;;;5.63;4.80;;;;;;;10.59;70.84;95504.66;4989886;28;20657;-48
2022/12/05 01:36:19;;;;;;;6.90;5.40;;;;;;;10.59;70.80;95503.88;4990438;28;20193;-48
2022/12/05 01:38:46;;;;;;;6.33;4.83;;;;;;;10.58;70.89;95499.66;5008740;28;20200;-47
2022/12/05 01:41:16;;;;;;;6.57;5.53;;;;;;;10.41;70.87;95470.28;5010366;28;20560;-48
2022/12/05 01:44:00;;;;;;;5.83;5.20;;;;;;;10.57;70.89;95496.28;5009922;28;20203;-47
2022/12/05 01:46:28;;;;;;;7.70;5.23;;;;;;;10.54;70.91;95497.34;5010461;28;20242;-47
2022/12/05 01:49:06;;;;;;;6.47;5.30;;;;;;;10.53;70.93;95500.84;5010707;28;20200;-48
2022/12/05 01:51:35;;;;;;;6.67;5.33;;;;;;;10.53;70.87;95500.00;5010365;28;20193;-47
2022/12/05 01:54:04;;;;;;;7.07;5.20;;;;;;;10.41;71.17;95472.84;5010437;28;20219;-48
2022/12/05 01:56:32;;;;;;;5.10;4.60;;;;;;;10.53;71.00;95494.91;5010232;28;20243;-48
2022/12/05 01:59:03;;;;;;;7.23;5.37;;;;;;;10.53;71.07;95494.91;5011050;28;20235;-47
2022/12/05 02:01:30;;;;;;;5.30;4.80;;;;;;;10.52;71.03;95499.19;5010569;28;20196;-51
2022/12/05 02:03:58;;;;;;;10.50;5.53;;;;;;;10.53;70.86;95497.44;5010549;28;20595;-48
2022/12/05 02:06:26;;;;;;;6.60;5.17;;;;;;;10.53;71.00;95495.72;5010373;28;20215;-47
2022/12/05 02:08:54;;;;;;;7.00;4.90;;;;;;;10.53;71.00;95500.00;5010574;28;20636;-49
2022/12/05 02:11:23;;;;;;;6.10;5.20;;;;;;;10.50;71.10;95493.41;5010656;28;20198;-49
2022/12/05 02:14:20;;;;;;;7.37;5.20;;;;;;;10.54;71.07;95509.34;5010953;28;20204;-49
2022/12/05 02:16:58;;;;;;;8.27;5.27;;;;;;;10.54;71.12;95507.59;4988365;28;20193;-47
2022/12/05 02:19:49;;;;;;;6.23;4.83;;;;;;;10.55;70.97;95508.41;4988183;28;20680;-48
2022/12/05 02:22:33;;;;;;;7.97;5.87;;;;;;;10.55;71.07;95509.19;4988426;28;20572;-49
2022/12/05 02:25:15;;;;;;;6.60;5.23;;;;;;;10.56;71.02;95507.47;4988203;28;20231;-47
2022/12/05 02:28:09;;;;;;;5.93;5.30;;;;;;;10.57;71.11;95503.97;4988404;28;20201;-47
2022/12/05 02:30:43;;;;;;;9.57;5.57;;;;;;;10.55;71.03;95495.59;4988078;28;20193;-48
2022/12/05 02:33:19;;;;;;;7.43;5.80;;;;;;;10.57;71.01;95503.97;4988143;28;20288;-48
2022/12/05 02:35:55;;;;;;;6.33;5.23;;;;;;;10.56;71.38;95492.09;4987951;28;20664;-48
2022/12/05 02:38:27;;;;;;;6.60;5.17;;;;;;;10.58;71.02;95491.97;4988241;28;20412;-48
2022/12/05 02:41:04;;;;;;;6.10;5.30;;;;;;;10.58;70.95;95491.97;4988164;28;20193;-48
2022/12/05 02:43:34;;;;;;;7.37;5.70;;;;;;;10.57;70.89;95485.25;4987922;28;20200;-47
2022/12/05 02:46:08;;;;;;;6.33;4.90;;;;;;;10.58;71.30;95492.81;4987965;28;20315;-48
2022/12/05 02:48:37;;;;;;;7.43;5.37;;;;;;;10.57;71.13;95486.06;4987676;28;20216;-48
2022/12/05 02:51:07;;;;;;;6.93;5.20;;;;;;;10.58;71.21;95484.31;4987623;28;20588;-48
2022/12/05 02:53:36;;;;;;;7.67;5.20;;;;;;;10.59;71.12;95478.28;4989150;28;20224;-48
2022/12/05 02:56:05;;;;;;;6.57;5.00;;;;;;;10.60;71.04;95479.91;4990292;28;20233;-48
2022/12/05 02:58:36;;;;;;;8.00;5.73;;;;;;;10.57;71.06;95473.25;4990034;28;20189;-48
2022/12/05 03:01:05;;;;;;;6.73;5.60;;;;;;;10.60;71.14;95485.03;4990039;28;20619;-47
2022/12/05 03:03:33;;;;;;;6.07;4.70;;;;;;;10.59;70.99;95484.22;4989596;28;20271;-47
2022/12/05 03:06:05;;;;;;;6.33;5.07;;;;;;;10.61;71.23;95481.53;4996472;28;20319;-48
2022/12/05 03:08:38;;;;;;;6.93;5.30;;;;;;;10.57;71.15;95464.78;5009541;28;20617;-47
2022/12/05 03:11:06;;;;;;;5.93;5.27;;;;;;;10.60;71.19;95478.16;5009459;28;20188;-47
2022/12/05 03:13:39;;;;;;;6.80;5.40;;;;;;;10.41;70.88;95442.97;5009295;28;20664;-48
2022/12/05 03:16:12;;;;;;;6.20;5.50;;;;;;;10.63;71.14;95475.38;5009492;28;20189;-47
2022/12/05 03:18:44;;;;;;;6.93;5.70;;;;;;;10.65;71.01;95477.81;5009254;28;20203;-48
2022/12/05 03:21:19;;;;;;;7.17;5.20;;;;;;;10.66;71.25;95487.09;5009262;28;20567;-47
2022/12/05 03:23:51;;;;;;;7.13;5.73;;;;;;;10.66;70.96;95481.97;5009067;28;20187;-48
2022/12/05 03:26:32;;;;;;;7.23;5.40;;;;;;;10.47;70.99;95450.16;5009604;28;20683;-48
2022/12/05 03:29:13;;;;;;;7.70;5.47;;;;;;;10.58;71.03;95474.06;5009177;28;20579;-48
2022/12/05 03:31:45;;;;;;;5.67;4.63;;;;;;;10.68;71.05;95483.50;5009020;28;20192;-48
2022/12/05 03:34:17;;;;;;;6.63;5.27;;;;;;;10.68;70.79;95491.16;5009460;28;20196;-48
2022/12/05 03:36:48;;;;;;;5.50;5.00;;;;;;;10.71;70.95;95490.94;5008865;28;20189;-49
2022/12/05 03:39:22;;;;;;;5.77;4.90;;;;;;;10.72;71.05;95495.13;5009319;28;20251;-49
2022/12/05 03:41:57;;;;;;;6.50;5.13;;;;;;;10.73;71.08;95488.25;5009355;28;20272;-49
2022/12/05 03:44:33;;;;;;;6.77;5.57;;;;;;;10.73;71.14;95489.06;5009451;28;20192;-49
2022/12/05 03:47:07;;;;;;;6.37;5.60;;;;;;;10.75;70.96;95489.78;5008913;28;20703;-47
2022/12/05 03:49:37;;;;;;;6.70;5.43;;;;;;;10.75;71.15;95492.34;5009009;28;20180;-48
2022/12/05 03:52:10;;;;;;;5.73;4.87;;;;;;;10.69;70.92;95476.63;5009240;28;20200;-47
2022/12/05 03:54:42;;;;;;;6.43;4.97;;;;;;;10.74;71.02;95484.75;5009011;28;20188;-48
2022/12/05 03:57:15;;;;;;;6.47;5.33;;;;;;;10.63;70.89;95469.44;5008861;28;20232;-49
2022/12/05 03:59:47;;;;;;;6.70;4.83;;;;;;;10.66;70.85;95476.84;5009181;28;20263;-48
2022/12/05 04:02:20;;;;;;;6.50;5.63;;;;;;;10.79;70.86;95493.72;5008832;28;20219;-49
2022/12/05 04:04:53;;;;;;;8.97;5.97;;;;;;;10.79;71.01;95491.16;5008936;28;20181;-49
2022/12/05 04:07:21;;;;;;;7.27;5.50;;;;;;;10.74;70.90;95483.00;5008953;28;20219;-48
2022/12/05 04:09:52;;;;;;;5.80;5.07;;;;;;;10.80;71.01;95479.19;5008422;28;20193;-48
2022/12/05 04:12:23;;;;;;;7.37;5.93;;;;;;;10.81;71.19;95480.78;5009057;28;20589;-49
2022/12/05 04:14:53;;;;;;;6.33;5.57;;;;;;;10.83;70.74;95480.66;5008927;28;20188;-49
2022/12/05 04:17:29;;;;;;;7.03;5.40;;;;;;;10.77;70.87;95464.88;5009503;28;20216;-48
2022/12/05 04:22:45;;;;;;;8.30;5.97;;;;;;;10.79;70.88;95460.47;5012751;28;20223;-49
2022/12/05 04:25:32;;;;;;;7.20;5.20;;;;;;;10.79;70.80;95457.91;5012309;28;20656;-49
2022/12/05 04:28:09;;;;;;;6.67;5.10;;;;;;;10.79;71.00;95457.06;5012258;28;20188;-48
2022/12/05 04:30:39;;;;;;;6.63;5.47;;;;;;;10.78;70.81;95463.94;5012637;28;20831;-49
2022/12/05 04:33:12;;;;;;;6.13;5.17;;;;;;;10.80;71.04;95466.38;5012608;28;20283;-49
2022/12/05 04:35:43;;;;;;;8.33;5.43;;;;;;;10.76;71.29;95470.94;5011775;28;20207;-48
2022/12/05 04:38:15;;;;;;;7.20;5.10;;;;;;;10.75;71.17;95468.47;5012460;28;20188;-47
2022/12/05 04:40:49;;;;;;;7.37;6.37;;;;;;;10.78;70.97;95481.84;5012189;28;20189;-49
2022/12/05 04:43:19;;;;;;;7.93;6.13;;;;;;;10.68;70.91;95465.59;5012301;28;20578;-48
2022/12/05 04:45:48;;;;;;;6.13;5.40;;;;;;;10.76;71.19;95478.59;5012168;28;20251;-49
2022/12/05 04:48:18;;;;;;;8.37;5.57;;;;;;;10.66;71.01;95464.88;5012430;28;20193;-48
2022/12/05 04:50:48;;;;;;;7.67;5.50;;;;;;;10.76;71.21;95481.16;5011147;28;20211;-50
2022/12/05 04:53:17;;;;;;;8.23;5.33;;;;;;;10.73;71.04;95478.03;5012223;28;20195;-49
2022/12/05 04:55:49;;;;;;;7.87;6.00;;;;;;;10.75;71.12;95482.09;5011719;28;20240;-49
2022/12/05 04:58:19;;;;;;;6.87;5.90;;;;;;;10.74;71.08;95495.00;5012235;28;20185;-49
2022/12/05 05:00:54;;;;;;;7.47;5.43;;;;;;;10.73;71.22;95491.63;5011644;28;20195;-49
2022/12/05 05:03:27;;;;;;;7.80;5.53;;;;;;;10.72;70.96;95486.63;5011375;28;20192;-47
2022/12/05 05:05:56;;;;;;;5.80;5.20;;;;;;;10.76;71.00;95498.25;5012112;28;20223;-48
2022/12/05 05:08:26;;;;;;;5.97;5.20;;;;;;;10.75;71.14;95501.72;5012261;28;20196;-48
2022/12/05 05:11:04;;;;;;;7.57;5.30;;;;;;;10.68;71.00;95488.63;5011978;28;20232;-48
2022/12/05 05:13:30;;;;;;;7.63;5.50;;;;;;;10.65;71.10;95482.91;5011888;28;20188;-50
2022/12/05 05:15:58;;;;;;;8.37;5.53;;;;;;;10.69;71.13;95494.53;5011909;28;20203;-49
2022/12/05 05:18:26;;;;;;;5.80;5.00;;;;;;;10.71;71.12;95502.94;5011040;28;20726;-48
2022/12/05 05:20:53;;;;;;;6.87;5.47;;;;;;;10.76;71.23;95516.16;5010782;28;20223;-48
2022/12/05 05:23:19;;;;;;;7.63;5.83;;;;;;;10.79;71.03;95511.63;5011340;28;20707;-48
2022/12/05 05:25:51;;;;;;;7.53;4.93;;;;;;;10.80;70.95;95517.56;5010803;28;20224;-48
2022/12/05 05:28:18;;;;;;;6.93;5.73;;;;;;;10.81;71.08;95516.63;5011312;28;20200;-47
2022/12/05 05:30:45;;;;;;;8.30;6.00;;;;;;;10.82;71.01;95518.25;5009898;28;20193;-48
2022/12/05 05:33:11;;;;;;;7.27;5.70;;;;;;;10.83;70.99;95521.59;5010800;28;20188;-49
2022/12/05 05:35:40;;;;;;;7.27;5.70;;;;;;;10.83;71.17;95519.84;5010631;28;20200;-48
2022/12/05 05:38:06;;;;;;;7.27;5.10;;;;;;;10.83;70.97;95517.31;5011601;28;20582;-48
2022/12/05 05:40:35;;;;;;;7.23;5.83;;;;;;;10.84;71.04;95508.72;5011128;28;20259;-47
2022/12/05 05:43:01;;;;;;;6.90;5.70;;;;;;;10.83;71.12;95506.25;5011009;28;20567;-48
2022/12/05 05:45:28;;;;;;;8.20;5.63;;;;;;;9.89;70.94;95356.66;5010998;28;20224;-48
2022/12/05 05:47:55;;;;;;;8.07;5.70;;;;;;;10.86;70.92;95513.69;5011218;28;20192;-47
2022/12/05 05:50:23;;;;;;;7.80;5.30;;;;;;;10.87;71.11;95512.75;5011236;28;20192;-48
2022/12/05 05:52:51;;;;;;;7.70;6.43;;;;;;;10.87;70.79;95526.38;5011161;28;20191;-48
2022/12/05 05:55:18;;;;;;;6.80;5.87;;;;;;;10.88;70.95;95527.19;5010954;28;20188;-47
2022/12/05 05:57:45;;;;;;;9.27;6.27;;;;;;;10.88;70.90;95530.56;5010517;28;20201;-48
2022/12/05 06:00:13;;;;;;;7.63;5.80;;;;;;;10.88;70.90;95525.47;5010358;28;20200;-48
2022/12/05 06:02:40;;;;;;;7.10;5.63;;;;;;;10.88;70.96;95520.34;4992809;28;20189;-47
2022/12/05 06:05:08;;;;;;;8.47;5.47;;;;;;;10.91;70.95;95535.44;5010603;28;20189;-49
2022/12/05 06:07:35;;;;;;;9.30;6.10;;;;;;;10.89;70.83;95534.75;5010049;28;20219;-48
2022/12/05 06:10:03;;;;;;;7.87;5.50;;;;;;;10.93;70.93;95535.34;5010129;28;20195;-48
2022/12/05 06:12:30;;;;;;;7.57;6.03;;;;;;;10.92;70.88;95537.06;5010506;28;20192;-47
2022/12/05 06:14:58;;;;;;;7.47;5.70;;;;;;;10.93;70.91;95532.78;5010960;28;20208;-47
2022/12/05 06:17:25;;;;;;;6.93;5.77;;;;;;;10.93;70.86;95532.78;5010435;28;20203;-49
2022/12/05 06:19:52;;;;;;;6.77;5.60;;;;;;;10.92;70.76;95536.25;5010803;28;20219;-48
2022/12/05 06:22:19;;;;;;;7.50;5.47;;;;;;;10.91;70.73;95534.63;5010168;28;20199;-49
2022/12/05 06:24:45;;;;;;;6.33;5.07;;;;;;;10.95;71.01;95538.56;5010714;28;20192;-49
2022/12/05 06:27:14;;;;;;;10.70;6.13;;;;;;;10.49;70.71;95462.81;5009779;28;20223;-49
2022/12/05 06:29:41;;;;;;;12.60;3.83;;;;;;;11.37;100.00;95521.59;5010150;28;20549;-48
2022/12/05 06:32:08;;;;;;;4.90;3.57;;;;;;;12.17;100.00;95527.97;5010358;28;20540;-47
2022/12/05 06:34:35;;;;;;;4.87;3.87;;;;;;;12.47;100.00;95455.34;5012461;28;20200;-47
2022/12/05 06:37:02;;;;;;;6.70;3.80;;;;;;;13.53;100.00;95537.72;5009614;28;20295;-48
2022/12/05 06:39:29;;;;;;;4.60;3.63;;;;;;;13.81;97.63;95537.84;5009190;28;20781;-48
2022/12/05 06:41:56;;;;;;;5.50;4.10;;;;;;;13.88;94.73;95544.06;5009847;28;20196;-48
2022/12/05 06:44:25;;;;;;;14.20;4.30;;;;;;;13.85;92.44;95539.19;5010054;28;20184;-47
2022/12/05 06:46:53;;;;;;;4.70;3.93;;;;;;;13.78;90.27;95541.53;5009738;28;20310;-49
2022/12/05 06:49:21;;;;;;;4.57;3.70;;;;;;;13.70;88.50;95540.56;5010191;28;20627;-47
2022/12/05 06:51:48;;;;;;;5.30;4.30;;;;;;;13.59;86.72;95541.50;5009438;28;20266;-48
2022/12/05 06:54:14;;;;;;;4.27;3.83;;;;;;;13.49;85.38;95540.69;5008858;28;20196;-49
2022/12/05 06:56:41;;;;;;;4.97;3.90;;;;;;;13.37;84.44;95541.78;5009247;28;20233;-48
2022/12/05 06:59:08;;;;;;;7.33;4.63;;;;;;;13.24;83.64;95540.25;5009906;28;20185;-48
2022/12/05 07:01:39;;;;;;;5.80;4.50;;;;;;;13.17;82.73;95543.44;5009638;28;20203;-49
2022/12/05 07:04:08;;;;;;;6.50;3.83;;;;;;;13.20;92.04;95535.50;5009958;28;20208;-48
2022/12/05 07:06:35;;;;;;;4.53;3.70;;;;;;;13.68;100.00;95545.03;5008517;28;20998;-49
2022/12/05 07:09:02;;;;;;;7.83;3.53;;;;;;;14.25;100.00;95543.34;5009038;28;20192;-49
2022/12/05 07:11:29;;;;;;;3.40;2.70;;;;;;;14.78;99.46;95546.16;5009699;28;20188;-49
2022/12/05 07:13:57;;;;;;;6.47;3.70;;;;;;;15.25;96.25;95542.69;5009925;28;20188;-49
2022/12/05 07:16:24;;;;;;;4.87;3.80;;;;;;;15.43;94.10;95556.38;5009458;28;20258;-48
2022/12/05 07:18:52;;;;;;;5.67;3.73;;;;;;;15.41;92.20;95545.41;5003643;28;20204;-49
2022/12/05 07:21:20;;;;;;;6.60;4.03;;;;;;;15.36;90.33;95551.94;5002314;28;20647;-49
2022/12/05 07:23:48;;;;;;;4.93;3.93;;;;;;;15.25;88.86;95547.84;5009032;28;20192;-48
2022/12/05 07:26:18;;;;;;;7.87;3.97;;;;;;;15.12;87.45;95553.34;5008807;28;20250;-50
2022/12/05 07:28:45;;;;;;;6.23;4.10;;;;;;;15.00;86.38;95554.47;5009220;28;20208;-49
2022/12/05 07:31:15;;;;;;;7.43;4.87;;;;;;;14.87;85.15;95556.56;5009467;28;20208;-48
2022/12/05 07:33:42;;;;;;;6.07;3.70;;;;;;;14.73;84.23;95557.84;5009147;28;20188;-48
2022/12/05 07:36:12;;;;;;;5.60;4.53;;;;;;;14.54;83.40;95549.22;5008913;28;20208;-48
2022/12/05 07:38:40;;;;;;;5.80;4.50;;;;;;;14.48;82.75;95557.53;5008629;28;20195;-49
2022/12/05 07:41:08;;;;;;;7.30;4.03;;;;;;;14.37;82.35;95564.56;5009354;28;20181;-47
2022/12/05 07:43:34;;;;;;;7.00;4.43;;;;;;;14.25;81.90;95557.03;5009165;28;20189;-49
2022/12/05 07:46:02;;;;;;;5.40;4.37;;;;;;;14.13;81.68;95567.59;5008846;28;20608;-49
2022/12/05 07:48:29;;;;;;;5.00;4.00;;;;;;;14.00;81.30;95566.13;5009203;28;20664;-49
2022/12/05 07:50:59;;;;;;;5.47;4.10;;;;;;;13.89;80.78;95573.16;5008824;28;20283;-48
2022/12/05 07:53:28;;;;;;;8.40;4.97;;;;;;;13.80;80.51;95569.66;5010429;28;20192;-48
2022/12/05 07:55:54;;;;;;;7.17;4.87;;;;;;;13.71;80.46;95563.56;5012266;28;20235;-49
2022/12/05 07:58:21;;;;;;;10.87;4.53;;;;;;;13.62;80.18;95561.81;5012993;28;20578;-47
2022/12/05 08:00:48;;;;;;;7.93;4.57;;;;;;;13.52;80.04;95558.44;5013356;28;20189;-47
2022/12/05 08:03:15;;;;;;;11.43;5.17;;;;;;;13.46;79.72;95549.47;5012415;28;20584;-49
2022/12/05 08:05:42;;;;;;;7.23;4.80;;;;;;;13.43;79.66;95551.53;5012622;28;20192;-48
2022/12/05 08:08:09;;;;;;;10.90;5.83;;;;;;;13.37;79.48;95557.19;5011792;28;20745;-48
2022/12/05 08:10:37;;;;;;;5.63;4.77;;;;;;;13.32;79.47;95567.06;5012898;28;20200;-49
2022/12/05 08:13:04;;;;;;;7.17;5.30;;;;;;;13.26;79.25;95574.34;5012208;28;20188;-53
2022/12/05 08:15:30;;;;;;;7.17;4.53;;;;;;;13.19;79.00;95568.06;5012814;28;20188;-49
2022/12/05 08:17:57;;;;;;;5.97;4.87;;;;;;;13.15;78.69;95568.47;5012248;28;20706;-48
2022/12/05 08:20:24;;;;;;;5.90;5.30;;;;;;;13.11;78.64;95565.34;5012513;28;20261;-48
2022/12/05 08:22:52;;;;;;;6.33;4.93;;;;;;;13.09;78.25;95569.00;5011905;28;20644;-48
2022/12/05 08:25:19;;;;;;;8.23;5.80;;;;;;;13.07;78.16;95576.81;5011953;28;20306;-48
2022/12/05 08:27:47;;;;;;;7.13;5.23;;;;;;;13.07;77.90;95576.81;5012083;28;20372;-47
2022/12/05 08:30:14;;;;;;;5.53;4.60;;;;;;;13.07;77.79;95569.94;5012501;28;20207;-48
2022/12/05 08:32:41;;;;;;;6.03;5.37;;;;;;;13.10;77.39;95573.19;5012299;28;20300;-48
2022/12/05 08:35:09;;;;;;;7.90;5.80;;;;;;;13.08;77.20;95560.47;5011448;28;20203;-48
2022/12/05 08:37:36;;;;;;;8.67;5.13;;;;;;;13.10;76.95;95568.06;5011308;28;20193;-48
2022/12/05 08:40:03;;;;;;;8.10;5.40;;;;;;;13.07;76.84;95569.13;5012272;28;20188;-48
2022/12/05 08:42:30;;;;;;;6.97;5.27;;;;;;;13.06;76.65;95570.06;5012289;28;20276;-48
2022/12/05 08:44:58;;;;;;;7.77;5.27;;;;;;;13.06;76.34;95562.38;5011538;28;20262;-48
2022/12/05 08:47:25;;;;;;;8.17;5.73;;;;;;;13.05;76.28;95551.28;5011601;28;20345;-48
2022/12/05 08:49:52;;;;;;;6.40;5.63;;;;;;;13.09;76.08;95561.31;5011304;28;20188;-47
2022/12/05 08:52:20;;;;;;;5.90;5.30;;;;;;;13.12;75.83;95564.41;5011572;28;20656;-48
2022/12/05 08:54:48;;;;;;;8.03;5.90;;;;;;;13.17;75.78;95564.00;5012087;28;20214;-48
2022/12/05 08:57:14;;;;;;;7.57;5.47;;;;;;;13.19;75.45;95562.94;5011138;28;20289;-47
2022/12/05 08:59:41;;;;;;;7.67;6.73;;;;;;;13.21;75.03;95570.50;5011763;28;20203;-47
2022/12/05 09:02:10;;;;;;;7.57;5.30;;;;;;;13.21;75.06;95566.19;5011627;28;20189;-51
2022/12/05 09:04:37;;;;;;;9.40;5.03;;;;;;;13.20;74.94;95568.88;5009980;28;20196;-49
2022/12/05 09:07:05;;;;;;;7.03;5.40;;;;;;;13.22;74.74;95569.59;5010540;28;20223;-48
2022/12/05 09:09:32;;;;;;;6.77;5.40;;;;;;;13.26;74.47;95563.28;5010757;28;20528;-48
2022/12/05 09:11:59;;;;;;;7.67;5.33;;;;;;;13.28;74.35;95564.75;5011430;28;20682;-48
2022/12/05 09:14:31;;;;;;;6.20;4.77;;;;;;;13.31;74.14;95566.25;5011708;28;20239;-48
2022/12/05 09:16:59;;;;;;;7.37;5.50;;;;;;;13.38;74.13;95566.50;5011064;28;20196;-48
2022/12/05 09:19:28;;;;;;;8.07;5.33;;;;;;;13.44;73.75;95566.81;5010923;28;20200;-47
2022/12/05 09:21:55;;;;;;;7.53;5.87;;;;;;;13.47;73.42;95560.56;5009750;28;20207;-47
2022/12/05 09:24:23;;;;;;;6.30;5.13;;;;;;;13.50;73.46;95550.03;5011491;28;20359;-48
2022/12/05 09:26:50;;;;;;;5.93;5.13;;;;;;;13.53;73.21;95557.47;5011064;28;20216;-48
2022/12/05 09:29:17;;;;;;;5.70;5.10;;;;;;;13.52;73.00;95541.25;5011124;28;20196;-48
2022/12/05 09:31:44;;;;;;;6.80;5.00;;;;;;;13.58;72.93;95554.50;5009996;28;20188;-48
2022/12/05 09:34:14;;;;;;;8.50;4.83;;;;;;;13.54;72.81;95547.06;5010605;28;20188;-48
2022/12/05 09:36:42;;;;;;;6.87;5.20;;;;;;;13.61;72.88;95552.47;5010332;28;20185;-48
2022/12/05 09:39:10;;;;;;;6.17;5.07;;;;;;;13.61;72.39;95543.97;4997694;28;20201;-47
2022/12/05 09:42:06;;;;;;;8.17;5.03;;;;;;;13.60;72.32;95540.59;5010807;28;20192;-47
2022/12/05 09:44:45;;;;;;;4.87;4.40;;;;;;;13.62;72.08;95538.69;5010832;28;20188;-47
2022/12/05 09:47:28;;;;;;;6.27;4.80;;;;;;;13.60;71.97;95535.44;5010685;28;20286;-48
2022/12/05 09:49:57;;;;;;;4.53;4.10;;;;;;;13.62;71.92;95538.69;5010192;28;20200;-47
2022/12/05 09:52:29;;;;;;;6.33;4.80;;;;;;;13.62;71.89;95533.53;5009921;28;20211;-47
2022/12/05 09:54:55;;;;;;;7.13;4.57;;;;;;;13.59;71.85;95528.66;5001629;28;20188;-47
2022/12/05 09:57:32;;;;;;;5.27;4.70;;;;;;;13.60;71.50;95525.16;5009621;28;20355;-48
2022/12/05 10:00:02;;;;;;;5.33;4.70;;;;;;;13.60;71.46;95529.47;5001711;28;20180;-48
2022/12/05 10:02:41;;;;;;;5.40;4.83;;;;;;;13.60;71.41;95526.91;5001592;28;20586;-48
2022/12/05 10:05:13;;;;;;;5.33;4.37;;;;;;;13.58;71.28;95527.03;5011744;28;20196;-48
2022/12/05 10:07:48;;;;;;;5.03;4.37;;;;;;;13.58;71.32;95521.91;5007529;28;20211;-48
2022/12/05 10:10:25;;;;;;;4.77;4.37;;;;;;;13.55;71.22;95512.69;5007892;28;20188;-49
2022/12/05 10:13:08;;;;;;;5.27;4.73;;;;;;;13.59;71.10;95520.13;5006209;28;20199;-49
2022/12/05 10:15:40;;;;;;;6.33;4.47;;;;;;;13.57;70.95;95517.72;4988277;28;20192;-50
2022/12/05 10:18:15;;;;;;;7.53;4.97;;;;;;;13.41;70.69;95495.13;4988416;28;20189;-48
2022/12/05 10:20:48;;;;;;;5.83;4.67;;;;;;;13.53;70.83;95511.22;4992151;28;20195;-51
2022/12/05 10:23:21;;;;;;;5.23;4.47;;;;;;;13.52;70.77;95512.97;4999281;28;20306;-49
2022/12/05 10:25:51;;;;;;;6.23;4.93;;;;;;;13.52;70.85;95514.75;4989845;28;20208;-48
2022/12/05 10:28:27;;;;;;;5.00;4.20;;;;;;;13.52;70.60;95505.28;4998808;28;20209;-48
2022/12/05 10:30:57;;;;;;;6.43;4.50;;;;;;;13.52;70.49;95512.19;4996599;28;20613;-47
2022/12/05 10:33:24;;;;;;;5.60;4.30;;;;;;;13.50;70.57;95509.72;5008652;28;20203;-48
2022/12/05 10:35:53;;;;;;;5.27;4.77;;;;;;;13.48;70.48;95511.63;5009345;28;20550;-48
2022/12/05 10:38:26;;;;;;;5.83;5.23;;;;;;;13.51;70.25;95500.25;5008681;28;20327;-48
2022/12/05 10:40:56;;;;;;;5.60;5.10;;;;;;;13.50;70.00;95501.19;5002891;28;20201;-47
2022/12/05 10:43:26;;;;;;;4.63;4.23;;;;;;;13.49;70.28;95504.72;4994751;28;20189;-49
2022/12/05 10:45:53;;;;;;;6.20;5.43;;;;;;;13.48;70.23;95496.22;4989745;28;20196;-49
2022/12/05 10:48:21;;;;;;;6.57;4.70;;;;;;;13.47;70.20;95494.59;4999171;28;20254;-49
2022/12/05 10:50:50;;;;;;;5.53;4.57;;;;;;;13.47;70.10;95496.31;5008009;28;20196;-48
2022/12/05 10:53:19;;;;;;;6.17;5.00;;;;;;;13.45;70.16;95495.66;4989319;28;20207;-47
2022/12/05 10:55:49;;;;;;;5.83;5.20;;;;;;;13.30;70.06;95469.56;4989482;28;20279;-48
2022/12/05 10:58:21;;;;;;;5.07;4.57;;;;;;;13.40;69.76;95483.22;4989137;28;20752;-49
2022/12/05 11:00:50;;;;;;;5.53;4.90;;;;;;;13.42;69.93;95495.94;4989470;28;20185;-48
2022/12/05 11:03:29;;;;;;;5.70;5.00;;;;;;;13.40;69.83;95487.56;4989264;28;20227;-49
2022/12/05 11:05:58;;;;;;;7.17;5.20;;;;;;;13.39;69.98;95493.66;4991981;28;20201;-48
2022/12/05 11:08:27;;;;;;;6.50;5.50;;;;;;;13.38;69.79;95486.88;4988852;28;20307;-48
2022/12/05 11:11:06;;;;;;;5.67;5.07;;;;;;;13.37;69.70;95486.06;4991353;28;20224;-47
2022/12/05 11:13:34;;;;;;;6.03;4.97;;;;;;;13.36;69.73;95481.06;5004615;28;20657;-49
2022/12/05 11:16:01;;;;;;;7.03;5.70;;;;;;;13.34;69.78;95481.19;4989090;28;20196;-48
2022/12/05 11:18:31;;;;;;;6.60;5.47;;;;;;;13.34;69.59;95480.38;4988824;28;20208;-48
2022/12/05 11:21:09;;;;;;;5.70;5.10;;;;;;;13.30;69.61;95467.00;4989133;28;20279;-48
2022/12/05 11:23:36;;;;;;;5.30;4.80;;;;;;;13.31;69.73;95468.63;5005739;28;20615;-49
2022/12/05 11:26:33;;;;;;;5.47;4.87;;;;;;;13.30;69.83;95470.38;5008925;28;20189;-50
2022/12/05 11:29:00;;;;;;;7.60;5.40;;;;;;;13.29;69.78;95471.31;5002114;28;20227;-47
2022/12/05 11:31:28;;;;;;;9.37;4.80;;;;;;;13.27;69.79;95460.38;4993457;28;20205;-50
2022/12/05 11:34:15;;;;;;;6.93;5.17;;;;;;;13.21;69.80;95457.50;4988605;28;20204;-48
2022/12/05 11:36:46;;;;;;;5.73;5.13;;;;;;;13.21;69.57;95447.22;5006317;28;20196;-48
2022/12/05 11:39:14;;;;;;;6.27;5.10;;;;;;;13.20;69.75;95451.53;5008071;28;20204;-47
2022/12/05 11:42:28;;;;;;;5.60;5.10;;;;;;;13.18;69.68;95439.81;5006190;28;20184;-47
2022/12/05 11:45:16;;;;;;;9.47;5.33;;;;;;;13.15;69.53;95440.88;4963922;28;20297;-48
2022/12/05 11:48:03;;;;;;;7.13;5.40;;;;;;;13.13;69.62;95434.25;4961237;28;20285;-48
2022/12/05 11:50:41;;;;;;;6.83;5.03;;;;;;;13.11;69.66;95431.81;4953655;28;20197;-49